VTSE/CJM METAR and TAF weather

Enter ICAO airport designator
Station Type Date Time Source
VTSE METAR 2022/08/13 11:00 UTC NOAA

VTSE 131100Z 26004KT 220V330 9999 FEW020 32/22 Q1006 NOSIG


Station Type Date Time Source
VTSE Decoded METAR 2022/08/13 11:00 UTC NOAA

Station name not available
Aug 13, 2022 - 07:00 AM EDT / 2022.08.13 1100 UTC
Wind: from the W (260 degrees) at 5 MPH (4 KT) (direction variable):0
Visibility: greater than 7 mile(s):0
Sky conditions: mostly clear
Temperature: 89 F (32 C)
Heat index: 95.0 F (35.0 C):1
Dew Point: 71 F (22 C)
Relative Humidity: 55%
Pressure (altimeter): 29.71 in. Hg (1006 hPa)
ob: VTSE 131100Z 26004KT 220V330 9999 FEW020 32/22 Q1006 NOSIG
cycle: 11

Station Type Date Time Source
VTSE TAF 2022/08/13 06:00 UTC NOAA

TAF VTSE 130500Z 1306/1406 26008KT 9999 SCT020
TEMPO 1306/1312 26015G25KT 4000 TSRA FEW016CB SCT018 BKN100

Example: see airport list